Time;durP1;ratioP1;P1;durP2;ratioP2;P2;SDS_P1;SDS_P2;PMS_P1;PMS_P2;Temp;Humidity;BMP_temperature;BMP_pressure;BME280_temperature;BME280_humidity;BME280_pressure;Samples;Min_cycle;Max_cycle;Signal;HPM_P1;HPM_P2
2021/06/21 00:02:00;;;;;;;;;;;16.00;99.90;;;;;;5034480;28;19956;-85
2021/06/21 00:04:26;;;;;;;;;;;16.00;99.90;;;;;;5053975;28;19935;-78
2021/06/21 00:06:52;;;;;;;;;;;16.00;99.90;;;;;;5036815;28;19966;-77
2021/06/21 00:09:17;;;;;;;;;;;16.00;99.90;;;;;;5069035;28;20003;-79
2021/06/21 00:11:43;;;;;;;;;;;16.00;99.90;;;;;;5045141;28;19908;-79
2021/06/21 00:14:08;;;;;;;;;;;16.00;99.90;;;;;;5036390;28;19904;-80
2021/06/21 00:16:34;;;;;;;;;;;16.00;99.90;;;;;;5036443;28;19919;-79
2021/06/21 00:18:59;;;;;;;;;;;15.90;99.90;;;;;;5061587;28;20280;-79
2021/06/21 00:21:25;;;;;;;;;;;15.80;99.90;;;;;;5070148;28;19917;-80
2021/06/21 00:23:51;;;;;;;;;;;15.70;99.90;;;;;;5044731;28;20218;-77
2021/06/21 00:26:16;;;;;;;;;;;15.70;99.90;;;;;;5036050;28;19920;-80
2021/06/21 00:28:42;;;;;;;;;;;15.70;99.90;;;;;;5039964;28;19913;-79
2021/06/21 00:31:07;;;;;;;;;;;15.70;99.90;;;;;;5040304;28;19963;-78
2021/06/21 00:33:33;;;;;;;;;;;15.60;99.90;;;;;;5041659;28;19904;-82
2021/06/21 00:35:58;;;;;;;;;;;15.60;99.90;;;;;;5057129;28;19917;-78
2021/06/21 00:38:24;;;;;;;;;;;15.70;99.90;;;;;;5055756;28;19927;-77
2021/06/21 00:40:49;;;;;;;;;;;15.60;99.90;;;;;;5040730;28;19909;-80
2021/06/21 00:43:15;;;;;;;;;;;15.50;99.90;;;;;;5050297;28;19919;-79
2021/06/21 00:45:40;;;;;;;;;;;15.50;99.90;;;;;;5058117;28;19944;-78
2021/06/21 00:48:06;;;;;;;;;;;15.50;99.90;;;;;;5040515;28;19947;-80
2021/06/21 00:50:32;;;;;;;;;;;15.40;99.90;;;;;;5039970;28;19908;-79
2021/06/21 00:52:58;;;;;;;;;;;15.40;99.90;;;;;;5041477;28;19920;-79
2021/06/21 00:55:25;;;;;;;;;;;15.40;99.90;;;;;;5040450;28;20225;-79
2021/06/21 00:57:51;;;;;;;;;;;15.40;99.90;;;;;;5073081;28;19912;-79
2021/06/21 01:00:18;;;;;;;;;;;15.40;99.90;;;;;;5036087;28;19913;-78
2021/06/21 01:02:44;;;;;;;;;;;15.40;99.90;;;;;;5063422;28;19909;-79
2021/06/21 01:05:10;;;;;;;;;;;15.40;99.90;;;;;;5058142;28;20337;-79
2021/06/21 01:07:36;;;;;;;;;;;15.30;99.90;;;;;;5057680;28;19915;-78
2021/06/21 01:10:03;;;;;;;;;;;15.30;99.90;;;;;;5056953;28;19916;-79
2021/06/21 01:12:47;;;;;;;;;;;15.30;99.90;;;;;;5061649;28;19910;-80
2021/06/21 01:15:18;;;;;;;;;;;15.30;99.90;;;;;;5064896;28;19921;-77
2021/06/21 01:17:43;;;;;;;;;;;15.30;99.90;;;;;;5039073;28;20341;-79
2021/06/21 01:20:26;;;;;;;;;;;15.20;99.90;;;;;;5066041;28;19951;-79
2021/06/21 01:23:11;;;;;;;;;;;15.20;99.90;;;;;;5067898;28;19916;-80
2021/06/21 01:25:42;;;;;;;;;;;15.20;99.90;;;;;;5060430;28;19913;-78
2021/06/21 01:28:16;;;;;;;;;;;15.20;99.90;;;;;;5054184;28;19952;-80
2021/06/21 01:30:53;;;;;;;;;;;15.20;99.90;;;;;;5072454;28;20308;-80
2021/06/21 01:33:19;;;;;;;;;;;15.10;99.90;;;;;;5055442;28;20082;-77
2021/06/21 01:35:51;;;;;;;;;;;15.10;99.90;;;;;;5053531;28;20008;-78
2021/06/21 01:38:19;;;;;;;;;;;15.10;99.90;;;;;;5071016;28;19913;-80
2021/06/21 01:40:46;;;;;;;;;;;15.10;99.90;;;;;;5023271;28;19917;-78
2021/06/21 01:43:14;;;;;;;;;;;15.10;99.90;;;;;;5038757;28;19961;-82
2021/06/21 01:45:41;;;;;;;;;;;15.10;99.90;;;;;;5053198;28;19908;-77
2021/06/21 01:48:06;;;;;;;;;;;15.10;99.90;;;;;;5064999;28;20230;-82
2021/06/21 01:50:33;;;;;;;;;;;15.20;99.90;;;;;;5039022;28;19913;-78
2021/06/21 01:53:07;;;;;;;;;;;15.20;99.90;;;;;;5042829;28;19936;-82
2021/06/21 01:55:33;;;;;;;;;;;15.20;99.90;;;;;;5038288;28;20222;-82
2021/06/21 01:57:59;;;;;;;;;;;15.10;99.90;;;;;;5047375;28;19904;-77
2021/06/21 02:00:25;;;;;;;;;;;15.10;99.90;;;;;;5041338;28;20299;-79
2021/06/21 02:02:52;;;;;;;;;;;15.10;99.90;;;;;;5061473;28;19917;-78
2021/06/21 02:05:18;;;;;;;;;;;15.20;99.90;;;;;;5038685;28;20326;-84
2021/06/21 02:07:45;;;;;;;;;;;15.20;99.90;;;;;;5056437;28;19905;-86
2021/06/21 02:10:11;;;;;;;;;;;15.20;99.90;;;;;;5039086;28;19955;-81
2021/06/21 02:12:37;;;;;;;;;;;15.20;99.90;;;;;;5056747;28;19917;-84
2021/06/21 02:15:04;;;;;;;;;;;15.20;99.90;;;;;;5053303;28;19909;-83
2021/06/21 02:17:30;;;;;;;;;;;15.20;99.90;;;;;;5072403;28;19905;-79
2021/06/21 02:19:56;;;;;;;;;;;15.20;99.90;;;;;;5055916;28;19904;-80
2021/06/21 02:22:22;;;;;;;;;;;15.30;99.90;;;;;;5070505;28;19909;-79
2021/06/21 02:24:48;;;;;;;;;;;15.30;99.90;;;;;;5071546;28;20299;-83
2021/06/21 02:27:14;;;;;;;;;;;15.30;99.90;;;;;;5056120;28;19904;-77
2021/06/21 02:29:40;;;;;;;;;;;15.30;99.90;;;;;;5047916;28;19979;-81
2021/06/21 02:32:06;;;;;;;;;;;15.30;99.90;;;;;;5056680;28;19970;-80
2021/06/21 02:34:31;;;;;;;;;;;15.30;99.90;;;;;;5055745;28;19905;-79
2021/06/21 02:36:57;;;;;;;;;;;15.30;99.90;;;;;;5037812;28;19913;-80
2021/06/21 02:39:22;;;;;;;;;;;15.30;99.90;;;;;;5038435;28;19909;-80
2021/06/21 02:41:48;;;;;;;;;;;15.20;99.90;;;;;;5062440;28;19908;-83
2021/06/21 02:44:13;;;;;;;;;;;15.20;99.90;;;;;;5037831;28;19997;-83
2021/06/21 02:46:39;;;;;;;;;;;15.20;99.90;;;;;;5042980;28;19958;-83
2021/06/21 02:49:05;;;;;;;;;;;15.20;99.90;;;;;;5056001;28;19935;-78
2021/06/21 02:51:38;;;;;;;;;;;15.10;99.90;;;;;;5055544;28;19952;-85
2021/06/21 02:54:23;;;;;;;;;;;15.10;99.90;;;;;;5037622;28;19908;-84
2021/06/21 02:56:57;;;;;;;;;;;15.10;99.90;;;;;;5045588;28;19913;-85
2021/06/21 02:59:23;;;;;;;;;;;15.00;99.90;;;;;;5038365;28;19952;-81
2021/06/21 03:01:53;;;;;;;;;;;14.90;99.90;;;;;;5059393;28;19966;-83
2021/06/21 03:04:20;;;;;;;;;;;14.90;99.90;;;;;;5040330;28;19904;-86
2021/06/21 03:06:46;;;;;;;;;;;14.90;99.90;;;;;;5038408;28;19944;-89
2021/06/21 03:09:12;;;;;;;;;;;14.80;99.90;;;;;;5056076;28;19912;-83
2021/06/21 03:11:38;;;;;;;;;;;14.80;99.90;;;;;;5068552;28;19965;-83
2021/06/21 03:14:05;;;;;;;;;;;14.70;99.90;;;;;;5055435;28;19908;-85
2021/06/21 03:16:32;;;;;;;;;;;14.70;99.90;;;;;;5049831;28;19916;-84
2021/06/21 03:18:57;;;;;;;;;;;14.70;99.90;;;;;;5062278;28;19920;-82
2021/06/21 03:21:23;;;;;;;;;;;14.70;99.90;;;;;;5053919;28;19995;-79
2021/06/21 03:23:52;;;;;;;;;;;14.60;99.90;;;;;;5064888;28;19908;-80
2021/06/21 03:26:23;;;;;;;;;;;14.60;99.90;;;;;;5053546;28;19943;-79
2021/06/21 03:28:48;;;;;;;;;;;14.60;99.90;;;;;;5053578;28;19936;-78
2021/06/21 03:31:14;;;;;;;;;;;14.50;99.90;;;;;;5037326;28;19967;-79
2021/06/21 03:33:39;;;;;;;;;;;14.50;99.90;;;;;;5060764;28;19905;-78
2021/06/21 03:36:05;;;;;;;;;;;14.40;99.90;;;;;;5058649;28;19951;-80
2021/06/21 03:38:31;;;;;;;;;;;14.40;99.90;;;;;;5035756;28;19955;-79
2021/06/21 03:40:58;;;;;;;;;;;14.40;99.90;;;;;;5038551;28;19912;-78
2021/06/21 03:43:25;;;;;;;;;;;14.30;99.90;;;;;;5039428;28;19913;-78
2021/06/21 03:45:51;;;;;;;;;;;14.20;99.90;;;;;;5057852;28;20558;-79
2021/06/21 03:48:17;;;;;;;;;;;14.20;99.90;;;;;;5055030;28;19916;-78
2021/06/21 03:50:43;;;;;;;;;;;14.20;99.90;;;;;;5035864;28;19908;-78
2021/06/21 03:53:10;;;;;;;;;;;14.20;99.90;;;;;;5055612;28;20208;-81
2021/06/21 03:55:35;;;;;;;;;;;14.10;99.90;;;;;;5053884;28;19909;-80
2021/06/21 03:58:01;;;;;;;;;;;14.20;99.90;;;;;;5036901;28;19919;-79
2021/06/21 04:00:29;;;;;;;;;;;14.20;99.90;;;;;;5053821;28;19908;-79
2021/06/21 04:02:56;;;;;;;;;;;14.20;99.90;;;;;;5053843;28;19912;-79
2021/06/21 04:05:23;;;;;;;;;;;14.10;99.90;;;;;;5051847;28;19913;-79
2021/06/21 04:07:48;;;;;;;;;;;14.10;99.90;;;;;;5052805;28;20007;-80
2021/06/21 04:10:15;;;;;;;;;;;14.10;99.90;;;;;;5054434;28;20291;-79
2021/06/21 04:12:41;;;;;;;;;;;14.10;99.90;;;;;;5053972;28;19912;-79
2021/06/21 04:15:09;;;;;;;;;;;14.10;99.90;;;;;;5040851;28;19959;-79
2021/06/21 04:17:35;;;;;;;;;;;14.10;99.90;;;;;;5054273;28;19905;-78
2021/06/21 04:20:00;;;;;;;;;;;14.10;99.90;;;;;;5035762;28;20004;-79
2021/06/21 04:22:27;;;;;;;;;;;14.10;99.90;;;;;;5050837;28;19912;-79
2021/06/21 04:24:52;;;;;;;;;;;14.10;99.90;;;;;;5044377;28;19916;-80
2021/06/21 04:27:18;;;;;;;;;;;14.10;99.90;;;;;;5050391;28;20196;-79
2021/06/21 04:29:43;;;;;;;;;;;14.10;99.90;;;;;;5029250;28;19970;-77
2021/06/21 04:32:09;;;;;;;;;;;14.10;99.90;;;;;;5034527;28;20258;-79
2021/06/21 04:34:34;;;;;;;;;;;14.10;99.90;;;;;;5064633;28;19916;-80
2021/06/21 04:37:00;;;;;;;;;;;14.10;99.90;;;;;;5035430;28;19966;-78
2021/06/21 04:39:26;;;;;;;;;;;14.10;99.90;;;;;;5054161;28;19916;-79
2021/06/21 04:41:51;;;;;;;;;;;14.10;99.90;;;;;;5053402;28;19904;-79
2021/06/21 04:44:17;;;;;;;;;;;14.10;99.90;;;;;;5035961;28;19968;-79
2021/06/21 04:46:42;;;;;;;;;;;14.10;99.90;;;;;;5051517;28;19919;-79
2021/06/21 04:49:12;;;;;;;;;;;14.10;99.90;;;;;;5049544;28;19917;-79
2021/06/21 04:51:41;;;;;;;;;;;14.10;99.90;;;;;;5042113;28;19908;-79
2021/06/21 04:54:07;;;;;;;;;;;14.20;99.90;;;;;;5051149;28;19909;-80
2021/06/21 04:56:34;;;;;;;;;;;14.10;99.90;;;;;;5066028;28;20367;-79
2021/06/21 04:58:59;;;;;;;;;;;14.10;99.90;;;;;;5062905;28;19909;-79
2021/06/21 05:01:25;;;;;;;;;;;14.10;99.90;;;;;;5067594;28;20362;-79
2021/06/21 05:03:50;;;;;;;;;;;14.20;99.90;;;;;;5076502;28;19912;-81
2021/06/21 05:06:16;;;;;;;;;;;14.10;99.90;;;;;;5060999;28;20279;-79
2021/06/21 05:08:42;;;;;;;;;;;14.20;99.90;;;;;;5044645;28;19930;-80
2021/06/21 05:11:07;;;;;;;;;;;14.10;99.90;;;;;;5046081;28;19916;-76
2021/06/21 05:13:33;;;;;;;;;;;14.20;99.90;;;;;;5062442;28;20298;-79
2021/06/21 05:15:58;;;;;;;;;;;14.20;99.90;;;;;;5048483;28;19920;-78
2021/06/21 05:18:24;;;;;;;;;;;14.20;99.90;;;;;;5045911;28;19924;-78
2021/06/21 05:20:50;;;;;;;;;;;14.20;99.90;;;;;;5064390;28;20021;-81
2021/06/21 05:23:15;;;;;;;;;;;14.20;99.90;;;;;;5073278;28;19916;-79
2021/06/21 05:25:41;;;;;;;;;;;14.20;99.90;;;;;;5065958;28;19916;-79
2021/06/21 05:28:06;;;;;;;;;;;14.20;99.90;;;;;;5042564;28;19943;-78
2021/06/21 05:30:32;;;;;;;;;;;14.20;99.90;;;;;;5047093;28;19937;-79
2021/06/21 05:32:57;;;;;;;;;;;14.20;99.90;;;;;;5063491;28;19909;-78
2021/06/21 05:35:23;;;;;;;;;;;14.20;99.90;;;;;;5064729;28;19917;-79
2021/06/21 05:37:49;;;;;;;;;;;14.20;99.90;;;;;;5064854;28;19931;-78
2021/06/21 05:40:16;;;;;;;;;;;14.20;99.90;;;;;;5063113;28;20715;-77
2021/06/21 05:42:41;;;;;;;;;;;14.20;99.90;;;;;;5065605;28;19948;-78
2021/06/21 05:45:07;;;;;;;;;;;14.20;99.90;;;;;;5064657;28;19978;-77
2021/06/21 05:47:32;;;;;;;;;;;14.20;99.90;;;;;;5047974;28;19958;-79
2021/06/21 05:49:58;;;;;;;;;;;14.20;99.90;;;;;;5063792;28;19915;-80
2021/06/21 05:52:24;;;;;;;;;;;14.20;99.90;;;;;;5063576;28;19999;-79
2021/06/21 05:54:49;;;;;;;;;;;14.20;99.90;;;;;;5064775;28;19915;-79
2021/06/21 05:57:15;;;;;;;;;;;14.20;99.90;;;;;;5063853;28;19925;-76
2021/06/21 05:59:40;;;;;;;;;;;14.20;99.90;;;;;;5067481;28;19944;-81
2021/06/21 06:02:06;;;;;;;;;;;14.10;99.90;;;;;;5064609;28;19912;-80
2021/06/21 06:04:31;;;;;;;;;;;14.00;99.90;;;;;;5047900;28;19920;-78
2021/06/21 06:06:57;;;;;;;;;;;14.10;99.90;;;;;;5046870;28;19908;-80
2021/06/21 06:09:23;;;;;;;;;;;14.10;99.90;;;;;;5047072;28;20222;-78
2021/06/21 06:11:48;;;;;;;;;;;14.00;99.90;;;;;;5049982;28;19916;-79
2021/06/21 06:14:15;;;;;;;;;;;14.00;99.90;;;;;;5052137;28;19999;-78
2021/06/21 06:16:40;;;;;;;;;;;14.00;99.90;;;;;;5066912;28;19913;-80
2021/06/21 06:19:06;;;;;;;;;;;14.00;99.90;;;;;;5046932;28;20042;-79
2021/06/21 06:21:31;;;;;;;;;;;14.00;99.90;;;;;;5062847;28;20318;-80
2021/06/21 06:23:58;;;;;;;;;;;14.00;99.90;;;;;;5047790;28;19908;-79
2021/06/21 06:26:24;;;;;;;;;;;14.00;99.90;;;;;;5045817;28;19926;-78
2021/06/21 06:28:50;;;;;;;;;;;13.90;99.90;;;;;;5045558;28;20333;-78
2021/06/21 06:31:15;;;;;;;;;;;13.90;99.90;;;;;;5059551;28;20011;-79
2021/06/21 06:33:41;;;;;;;;;;;14.00;99.90;;;;;;5050446;28;19916;-81
2021/06/21 06:36:07;;;;;;;;;;;14.00;99.90;;;;;;5065577;28;19924;-79
2021/06/21 06:38:32;;;;;;;;;;;13.90;99.90;;;;;;5049441;28;19912;-78
2021/06/21 06:40:58;;;;;;;;;;;13.90;99.90;;;;;;5050591;28;19912;-78
2021/06/21 06:43:24;;;;;;;;;;;14.00;99.90;;;;;;5052178;28;19923;-78
2021/06/21 06:45:50;;;;;;;;;;;14.00;99.90;;;;;;5045787;28;19916;-79
2021/06/21 06:48:16;;;;;;;;;;;14.00;99.90;;;;;;5064575;28;19920;-79
2021/06/21 06:50:41;;;;;;;;;;;14.00;99.90;;;;;;5047084;28;19919;-79
2021/06/21 06:53:07;;;;;;;;;;;14.00;99.90;;;;;;5062793;28;19944;-78
2021/06/21 06:58:17;;;;;;;;;;;13.90;99.90;;;;;;5061515;28;19934;-78
2021/06/21 07:00:43;;;;;;;;;;;13.90;99.90;;;;;;5079093;28;19916;-78
2021/06/21 07:03:08;;;;;;;;;;;13.90;99.90;;;;;;5048461;28;19912;-79
2021/06/21 07:05:35;;;;;;;;;;;13.90;99.90;;;;;;5046126;28;19912;-78
2021/06/21 07:08:00;;;;;;;;;;;13.90;99.90;;;;;;5045582;28;20015;-78
2021/06/21 07:10:26;;;;;;;;;;;13.90;99.90;;;;;;5050074;28;20259;-78
2021/06/21 07:12:52;;;;;;;;;;;13.90;99.90;;;;;;5045258;28;19984;-79
2021/06/21 07:15:18;;;;;;;;;;;13.90;99.90;;;;;;5065283;28;20191;-78
2021/06/21 07:17:44;;;;;;;;;;;13.90;99.90;;;;;;5078782;28;19955;-78
2021/06/21 07:20:10;;;;;;;;;;;13.90;99.90;;;;;;5050478;28;20252;-78
2021/06/21 07:22:36;;;;;;;;;;;13.80;99.90;;;;;;5062193;28;20497;-78
2021/06/21 07:25:01;;;;;;;;;;;13.90;99.90;;;;;;5062224;28;20036;-78
2021/06/21 07:27:27;;;;;;;;;;;13.90;99.90;;;;;;5045251;28;20003;-78
2021/06/21 07:29:53;;;;;;;;;;;13.90;99.90;;;;;;5046526;28;20007;-79
2021/06/21 07:32:19;;;;;;;;;;;13.90;99.90;;;;;;5052540;28;20295;-78
2021/06/21 07:34:45;;;;;;;;;;;13.90;99.90;;;;;;5058371;28;19909;-79
2021/06/21 07:37:11;;;;;;;;;;;13.90;99.90;;;;;;5072647;28;19971;-78
2021/06/21 07:39:37;;;;;;;;;;;13.90;99.90;;;;;;5063578;28;19908;-77
2021/06/21 07:42:03;;;;;;;;;;;13.90;99.90;;;;;;5062352;28;20006;-78
2021/06/21 07:44:29;;;;;;;;;;;13.90;99.90;;;;;;5042135;28;20320;-77
2021/06/21 07:46:55;;;;;;;;;;;13.90;99.90;;;;;;5058513;28;19916;-78
2021/06/21 07:49:21;;;;;;;;;;;13.90;99.90;;;;;;5046763;28;19912;-78
2021/06/21 07:51:46;;;;;;;;;;;13.90;99.90;;;;;;5049358;28;20226;-78
2021/06/21 07:54:12;;;;;;;;;;;13.90;99.90;;;;;;5062021;28;19916;-78
2021/06/21 07:56:37;;;;;;;;;;;14.00;99.90;;;;;;5062683;28;19920;-78
2021/06/21 07:59:03;;;;;;;;;;;14.00;99.90;;;;;;5036973;28;19917;-79
2021/06/21 08:01:29;;;;;;;;;;;14.00;99.90;;;;;;5058684;28;20007;-78
2021/06/21 08:03:56;;;;;;;;;;;14.00;99.90;;;;;;5056852;28;20207;-77
2021/06/21 08:06:23;;;;;;;;;;;14.00;99.90;;;;;;5043725;28;19908;-78
2021/06/21 08:08:48;;;;;;;;;;;14.00;99.90;;;;;;5043989;28;20023;-77
2021/06/21 08:11:14;;;;;;;;;;;14.10;99.90;;;;;;5056328;28;20058;-77
2021/06/21 08:13:40;;;;;;;;;;;14.10;99.90;;;;;;5057730;28;19941;-78
2021/06/21 08:16:06;;;;;;;;;;;14.10;99.90;;;;;;5058068;28;20441;-78
2021/06/21 08:18:31;;;;;;;;;;;14.10;99.90;;;;;;5045017;28;19916;-78
2021/06/21 08:20:58;;;;;;;;;;;14.20;99.90;;;;;;5058029;28;19917;-78
2021/06/21 08:23:23;;;;;;;;;;;14.20;99.90;;;;;;5060560;28;19908;-77
2021/06/21 08:25:49;;;;;;;;;;;14.20;99.90;;;;;;5043690;28;20222;-77
2021/06/21 08:28:15;;;;;;;;;;;14.20;99.90;;;;;;5058860;28;20395;-78
2021/06/21 08:30:41;;;;;;;;;;;14.10;99.90;;;;;;5042985;28;19924;-79
2021/06/21 08:33:06;;;;;;;;;;;14.20;99.90;;;;;;5060044;28;19908;-77
2021/06/21 08:35:32;;;;;;;;;;;14.20;99.90;;;;;;5042186;28;20022;-78
2021/06/21 08:37:58;;;;;;;;;;;14.20;99.90;;;;;;5060529;28;20008;-78
2021/06/21 08:40:24;;;;;;;;;;;14.10;99.90;;;;;;5062064;28;19954;-77
2021/06/21 08:42:50;;;;;;;;;;;14.10;99.90;;;;;;5037251;28;20192;-78
2021/06/21 08:45:16;;;;;;;;;;;14.10;99.90;;;;;;5037125;28;19916;-78
2021/06/21 08:47:42;;;;;;;;;;;14.00;99.90;;;;;;5045539;28;19912;-77
2021/06/21 08:50:08;;;;;;;;;;;14.10;99.90;;;;;;5060504;28;19954;-78
2021/06/21 08:52:34;;;;;;;;;;;14.10;99.90;;;;;;5048345;28;19916;-78
2021/06/21 08:55:04;;;;;;;;;;;14.10;99.90;;;;;;5063476;28;19913;-78
2021/06/21 08:57:34;;;;;;;;;;;14.10;99.90;;;;;;5047855;28;19919;-77
2021/06/21 08:59:59;;;;;;;;;;;14.10;99.90;;;;;;5066241;28;19908;-80
2021/06/21 09:02:28;;;;;;;;;;;14.00;99.90;;;;;;5046941;28;20280;-78
2021/06/21 09:04:54;;;;;;;;;;;14.10;99.90;;;;;;5063898;28;20028;-79
2021/06/21 09:07:21;;;;;;;;;;;14.10;99.90;;;;;;5065681;28;20243;-78
2021/06/21 09:09:47;;;;;;;;;;;14.10;99.90;;;;;;5048751;28;19935;-78
2021/06/21 09:12:12;;;;;;;;;;;14.10;99.90;;;;;;5048135;28;19923;-77
2021/06/21 09:14:38;;;;;;;;;;;14.10;99.90;;;;;;5064092;28;19908;-78
2021/06/21 09:17:05;;;;;;;;;;;14.10;99.90;;;;;;5066272;28;20365;-79
2021/06/21 09:19:31;;;;;;;;;;;14.10;99.90;;;;;;5064694;28;19912;-79
2021/06/21 09:21:57;;;;;;;;;;;14.20;99.90;;;;;;5065759;28;20352;-78
2021/06/21 09:24:28;;;;;;;;;;;14.10;99.90;;;;;;5047075;28;19927;-79
2021/06/21 09:26:55;;;;;;;;;;;14.20;99.90;;;;;;5052313;28;19963;-79
2021/06/21 09:29:37;;;;;;;;;;;14.20;99.90;;;;;;5062568;28;19912;-79
2021/06/21 09:32:03;;;;;;;;;;;14.20;99.90;;;;;;5046716;28;20017;-77
2021/06/21 09:34:29;;;;;;;;;;;14.20;99.90;;;;;;5063447;28;20008;-79
2021/06/21 09:37:04;;;;;;;;;;;14.20;99.90;;;;;;5046251;28;19924;-78
2021/06/21 09:39:32;;;;;;;;;;;14.20;99.90;;;;;;5079432;28;20315;-79
2021/06/21 09:42:13;;;;;;;;;;;14.20;99.90;;;;;;5065094;28;19954;-77
2021/06/21 09:44:40;;;;;;;;;;;14.10;99.90;;;;;;5067311;28;19916;-79
2021/06/21 09:47:12;;;;;;;;;;;14.10;99.90;;;;;;5053872;28;19912;-79
2021/06/21 09:49:38;;;;;;;;;;;14.10;99.90;;;;;;5068346;28;19908;-77
2021/06/21 09:52:04;;;;;;;;;;;14.00;99.90;;;;;;5070990;28;20346;-78
2021/06/21 09:54:33;;;;;;;;;;;14.00;99.90;;;;;;5051492;28;19955;-77
2021/06/21 09:57:10;;;;;;;;;;;13.90;99.90;;;;;;5066676;28;20029;-77
2021/06/21 09:59:46;;;;;;;;;;;13.90;99.90;;;;;;5052388;28;19961;-78
2021/06/21 10:02:16;;;;;;;;;;;14.00;99.90;;;;;;5051015;28;19912;-79
2021/06/21 10:04:43;;;;;;;;;;;14.00;99.90;;;;;;5068006;28;19966;-79
2021/06/21 10:07:26;;;;;;;;;;;13.90;99.90;;;;;;5070708;28;19999;-77
2021/06/21 10:09:53;;;;;;;;;;;13.90;99.90;;;;;;5045750;28;20329;-78
2021/06/21 10:12:19;;;;;;;;;;;14.00;99.90;;;;;;5069611;28;19908;-75
2021/06/21 10:14:45;;;;;;;;;;;14.00;99.90;;;;;;5065674;28;19954;-77
2021/06/21 10:17:10;;;;;;;;;;;14.00;99.90;;;;;;5046081;28;19925;-83
2021/06/21 10:19:36;;;;;;;;;;;14.00;99.90;;;;;;5043387;28;19922;-78
2021/06/21 10:22:02;;;;;;;;;;;14.00;99.90;;;;;;5062741;28;19917;-78
2021/06/21 10:24:31;;;;;;;;;;;14.00;99.90;;;;;;5046572;28;19965;-78
2021/06/21 10:26:57;;;;;;;;;;;14.00;99.90;;;;;;5047968;28;19956;-80
2021/06/21 10:29:23;;;;;;;;;;;14.00;99.90;;;;;;5046658;28;20009;-75
2021/06/21 10:31:50;;;;;;;;;;;14.00;99.90;;;;;;5063647;28;19987;-80
2021/06/21 10:34:16;;;;;;;;;;;14.00;99.90;;;;;;5045988;28;19916;-79
2021/06/21 10:36:49;;;;;;;;;;;14.00;99.90;;;;;;5061685;28;19932;-79
2021/06/21 10:39:18;;;;;;;;;;;14.00;99.90;;;;;;5045686;28;19940;-81
2021/06/21 10:42:02;;;;;;;;;;;14.00;99.90;;;;;;5064764;28;19912;-79
2021/06/21 10:44:33;;;;;;;;;;;14.10;99.90;;;;;;5062671;28;19909;-82
2021/06/21 10:47:19;;;;;;;;;;;14.10;99.90;;;;;;5063995;28;19909;-77
2021/06/21 10:49:53;;;;;;;;;;;14.10;99.90;;;;;;5048493;28;20298;-76
2021/06/21 10:52:32;;;;;;;;;;;14.10;99.90;;;;;;5044897;28;19913;-81
2021/06/21 10:55:17;;;;;;;;;;;14.10;99.90;;;;;;5045495;28;19912;-80
2021/06/21 10:57:42;;;;;;;;;;;14.10;99.90;;;;;;5065215;28;19927;-78
2021/06/21 11:00:12;;;;;;;;;;;14.10;99.90;;;;;;5060493;28;19912;-78
2021/06/21 11:02:38;;;;;;;;;;;14.10;99.90;;;;;;5061083;28;19915;-79
2021/06/21 11:05:08;;;;;;;;;;;14.10;99.90;;;;;;5043211;28;19912;-77
2021/06/21 11:07:37;;;;;;;;;;;14.10;99.90;;;;;;5045341;28;19921;-79
2021/06/21 11:10:04;;;;;;;;;;;14.20;99.90;;;;;;5056309;28;19923;-78
2021/06/21 11:12:37;;;;;;;;;;;14.20;99.90;;;;;;5037449;28;19916;-78
2021/06/21 11:15:02;;;;;;;;;;;14.20;99.90;;;;;;5060822;28;20008;-78
2021/06/21 11:17:29;;;;;;;;;;;14.20;99.90;;;;;;5063681;28;20346;-76
2021/06/21 11:19:56;;;;;;;;;;;14.30;99.90;;;;;;5045126;28;19947;-75
2021/06/21 11:22:41;;;;;;;;;;;14.30;99.90;;;;;;5060645;28;19912;-80
2021/06/21 11:25:20;;;;;;;;;;;14.30;99.90;;;;;;5046743;28;19909;-78
2021/06/21 11:27:46;;;;;;;;;;;14.30;99.90;;;;;;5046575;28;19919;-78
2021/06/21 11:30:29;;;;;;;;;;;14.40;99.90;;;;;;5045520;28;20295;-77
2021/06/21 11:32:56;;;;;;;;;;;14.40;99.90;;;;;;5062627;28;20262;-77
2021/06/21 11:35:40;;;;;;;;;;;14.40;99.90;;;;;;5060680;28;20353;-75
2021/06/21 11:38:25;;;;;;;;;;;14.50;99.90;;;;;;5061537;28;19918;-77
2021/06/21 11:41:11;;;;;;;;;;;14.50;99.90;;;;;;5063929;28;19916;-81
2021/06/21 11:43:45;;;;;;;;;;;14.60;99.90;;;;;;5037465;28;19912;-82
2021/06/21 11:46:11;;;;;;;;;;;14.60;99.90;;;;;;5059833;28;19917;-82
2021/06/21 11:48:38;;;;;;;;;;;14.60;99.90;;;;;;5063128;28;19912;-76
2021/06/21 11:51:11;;;;;;;;;;;14.70;99.90;;;;;;5060105;28;19962;-78
2021/06/21 11:53:40;;;;;;;;;;;14.60;99.90;;;;;;5047744;28;19995;-83
2021/06/21 11:56:06;;;;;;;;;;;14.60;99.90;;;;;;5062535;28;19920;-78
2021/06/21 11:58:32;;;;;;;;;;;14.50;99.90;;;;;;5063493;28;20008;-81
2021/06/21 12:00:59;;;;;;;;;;;14.50;99.90;;;;;;5055447;28;19919;-76
2021/06/21 12:03:32;;;;;;;;;;;14.50;99.90;;;;;;5054840;28;19912;-78
2021/06/21 12:05:57;;;;;;;;;;;14.50;99.90;;;;;;5054501;28;20074;-79
2021/06/21 12:08:23;;;;;;;;;;;14.50;99.90;;;;;;5048195;28;20351;-79
2021/06/21 12:10:49;;;;;;;;;;;14.50;99.90;;;;;;5054189;28;19912;-80
2021/06/21 12:13:17;;;;;;;;;;;14.50;99.90;;;;;;5053339;28;20211;-78
2021/06/21 12:15:43;;;;;;;;;;;14.50;99.90;;;;;;5055157;28;19917;-78
2021/06/21 12:18:09;;;;;;;;;;;14.50;99.90;;;;;;5051633;28;19919;-76
2021/06/21 12:20:35;;;;;;;;;;;14.50;99.90;;;;;;5051373;28;19913;-79
2021/06/21 12:23:08;;;;;;;;;;;14.60;99.90;;;;;;5068596;28;19912;-78
2021/06/21 12:25:41;;;;;;;;;;;14.60;99.90;;;;;;5057505;28;19955;-79
2021/06/21 12:28:10;;;;;;;;;;;14.70;99.90;;;;;;5036191;28;19917;-78
2021/06/21 12:30:37;;;;;;;;;;;14.80;99.90;;;;;;5038129;28;19912;-75
2021/06/21 12:33:21;;;;;;;;;;;14.80;99.90;;;;;;5048507;28;20222;-77
2021/06/21 12:36:09;;;;;;;;;;;14.80;99.90;;;;;;5033567;28;19917;-78
2021/06/21 12:38:36;;;;;;;;;;;14.90;99.90;;;;;;5069714;28;20207;-75
2021/06/21 12:41:22;;;;;;;;;;;14.90;99.90;;;;;;5035716;28;19909;-77
2021/06/21 12:43:54;;;;;;;;;;;14.90;99.90;;;;;;5038386;28;19915;-77
2021/06/21 12:46:21;;;;;;;;;;;14.90;99.90;;;;;;5051821;28;19904;-78
2021/06/21 12:48:47;;;;;;;;;;;15.00;99.90;;;;;;5053485;28;20269;-76
2021/06/21 12:51:12;;;;;;;;;;;15.00;99.90;;;;;;5061194;28;19958;-77
2021/06/21 12:53:57;;;;;;;;;;;15.00;99.90;;;;;;5034897;28;19966;-76
2021/06/21 12:56:49;;;;;;;;;;;15.00;99.90;;;;;;5043330;28;19916;-77
2021/06/21 12:59:31;;;;;;;;;;;15.10;99.90;;;;;;5046172;28;20242;-78
2021/06/21 13:01:57;;;;;;;;;;;15.30;99.90;;;;;;5049395;28;20299;-78
2021/06/21 13:04:23;;;;;;;;;;;15.50;99.90;;;;;;5062007;28;20233;-76
2021/06/21 13:07:05;;;;;;;;;;;15.40;99.90;;;;;;5043711;28;20292;-77
2021/06/21 13:09:41;;;;;;;;;;;15.40;99.90;;;;;;5059215;28;20491;-77
2021/06/21 13:12:07;;;;;;;;;;;15.50;99.90;;;;;;5034061;28;20023;-76
2021/06/21 13:14:34;;;;;;;;;;;15.40;99.90;;;;;;5049524;28;19995;-79
2021/06/21 13:17:16;;;;;;;;;;;15.30;99.90;;;;;;5038669;28;19936;-79
2021/06/21 13:19:43;;;;;;;;;;;15.20;99.90;;;;;;5040238;28;19913;-77
2021/06/21 13:22:32;;;;;;;;;;;15.20;99.90;;;;;;5043488;28;20227;-76
2021/06/21 13:24:59;;;;;;;;;;;15.20;99.90;;;;;;5017476;28;19913;-76
2021/06/21 13:27:26;;;;;;;;;;;15.20;99.90;;;;;;5059401;28;20303;-77
2021/06/21 13:29:53;;;;;;;;;;;15.30;99.90;;;;;;5041613;28;19935;-77
2021/06/21 13:32:29;;;;;;;;;;;15.40;99.90;;;;;;5055413;28;20215;-79
2021/06/21 13:34:56;;;;;;;;;;;15.50;99.90;;;;;;5044020;28;19920;-78
2021/06/21 13:37:27;;;;;;;;;;;15.60;99.90;;;;;;5056852;28;19998;-77
2021/06/21 13:39:55;;;;;;;;;;;15.60;99.90;;;;;;5055841;28;20011;-80
2021/06/21 13:42:34;;;;;;;;;;;15.70;99.90;;;;;;5060168;28;19916;-79
2021/06/21 13:45:01;;;;;;;;;;;15.80;99.90;;;;;;5047349;28;19909;-78
2021/06/21 13:47:48;;;;;;;;;;;15.90;99.90;;;;;;5044635;28;20220;-79
2021/06/21 13:50:17;;;;;;;;;;;15.90;99.90;;;;;;5062166;28;19968;-76
2021/06/21 13:52:43;;;;;;;;;;;16.00;99.90;;;;;;5048517;28;20014;-79
2021/06/21 13:55:11;;;;;;;;;;;16.10;99.90;;;;;;5062806;28;19908;-76
2021/06/21 13:57:44;;;;;;;;;;;16.10;99.90;;;;;;5030274;28;19920;-75
2021/06/21 14:00:26;;;;;;;;;;;16.00;99.90;;;;;;5063249;28;19915;-80
2021/06/21 14:02:53;;;;;;;;;;;15.80;99.90;;;;;;5041581;28;19909;-78
2021/06/21 14:05:18;;;;;;;;;;;15.70;99.90;;;;;;5080059;28;19912;-77
2021/06/21 14:07:44;;;;;;;;;;;15.70;99.90;;;;;;5064899;28;20237;-76
2021/06/21 14:10:10;;;;;;;;;;;15.60;99.90;;;;;;5046603;28;19908;-79
2021/06/21 14:12:36;;;;;;;;;;;15.50;99.90;;;;;;5046875;28;19912;-80
2021/06/21 14:15:02;;;;;;;;;;;15.50;99.90;;;;;;5072179;28;19916;-77
2021/06/21 14:17:27;;;;;;;;;;;15.50;99.90;;;;;;5056555;28;19919;-79
2021/06/21 14:19:53;;;;;;;;;;;15.50;99.90;;;;;;5055999;28;20233;-77
2021/06/21 14:22:19;;;;;;;;;;;15.60;99.90;;;;;;5058928;28;20218;-78
2021/06/21 14:24:45;;;;;;;;;;;15.70;99.90;;;;;;5035023;28;19909;-79